createdAt,value
2018-07-27T00:01:24.344Z,24.10
2018-07-27T00:03:52.649Z,24.10
2018-07-27T00:06:20.928Z,24.10
2018-07-27T00:08:49.262Z,24.00
2018-07-27T00:11:17.564Z,23.90
2018-07-27T00:13:45.865Z,23.80
2018-07-27T00:16:14.161Z,23.80
2018-07-27T00:18:42.515Z,23.80
2018-07-27T00:21:10.830Z,23.70
2018-07-27T00:23:39.316Z,23.70
2018-07-27T00:26:08.248Z,23.70
2018-07-27T00:28:36.552Z,23.70
2018-07-27T00:31:04.947Z,23.70
2018-07-27T00:33:33.257Z,23.70
2018-07-27T00:36:01.591Z,23.70
2018-07-27T00:38:29.891Z,23.60
2018-07-27T00:40:58.155Z,23.60
2018-07-27T00:43:26.459Z,23.50
2018-07-27T00:45:54.764Z,23.40
2018-07-27T00:48:23.045Z,23.40
2018-07-27T00:50:51.337Z,23.30
2018-07-27T00:53:19.636Z,23.40
2018-07-27T00:55:47.930Z,23.30
2018-07-27T00:58:16.235Z,23.20
2018-07-27T01:00:44.512Z,23.20
2018-07-27T01:03:13.891Z,23.20
2018-07-27T01:05:42.171Z,23.10
2018-07-27T01:08:10.440Z,23.10
2018-07-27T01:10:38.839Z,23.00
2018-07-27T01:13:07.224Z,23.00
2018-07-27T01:15:35.515Z,23.00
2018-07-27T01:18:03.796Z,22.90
2018-07-27T01:20:32.114Z,22.90
2018-07-27T01:23:01.697Z,22.90
2018-07-27T01:25:29.976Z,22.80
2018-07-27T01:27:58.285Z,22.80
2018-07-27T01:30:26.577Z,22.80
2018-07-27T01:32:54.880Z,22.80
2018-07-27T01:35:23.168Z,22.60
2018-07-27T01:37:51.440Z,22.60
2018-07-27T01:40:19.710Z,22.60
2018-07-27T01:42:48.000Z,22.60
2018-07-27T01:45:16.341Z,22.50
2018-07-27T01:47:44.631Z,22.50
2018-07-27T01:50:12.975Z,22.50
2018-07-27T01:52:41.261Z,22.40
2018-07-27T01:55:10.908Z,22.30
2018-07-27T01:57:39.193Z,22.20
2018-07-27T02:00:07.486Z,22.20
2018-07-27T02:02:35.756Z,22.20
2018-07-27T02:05:04.425Z,22.20
2018-07-27T02:07:32.725Z,22.20
2018-07-27T02:10:00.992Z,22.10
2018-07-27T02:12:29.294Z,22.10
2018-07-27T02:14:57.547Z,22.10
2018-07-27T02:17:25.835Z,22.10
2018-07-27T02:19:54.118Z,22.10
2018-07-27T02:22:22.414Z,22.00
2018-07-27T02:24:51.024Z,22.00
2018-07-27T02:27:19.301Z,21.90
2018-07-27T02:29:47.587Z,21.80
2018-07-27T02:32:15.864Z,21.80
2018-07-27T02:34:44.175Z,21.80
2018-07-27T02:37:12.414Z,21.70
2018-07-27T02:39:40.705Z,21.70
2018-07-27T02:42:08.984Z,21.60
2018-07-27T02:44:37.267Z,21.50
2018-07-27T02:47:05.657Z,21.50
2018-07-27T02:52:02.313Z,21.40
2018-07-27T02:54:30.588Z,21.40
2018-07-27T02:56:58.900Z,21.50
2018-07-27T02:59:27.206Z,21.50
2018-07-27T03:01:55.537Z,21.50
2018-07-27T03:04:23.961Z,21.50
2018-07-27T03:06:52.269Z,21.50
2018-07-27T03:09:20.561Z,21.50
2018-07-27T03:11:49.218Z,21.40
2018-07-27T03:19:48.719Z,21.20
2018-07-27T03:22:17.004Z,21.20
2018-07-27T03:24:45.320Z,21.20
2018-07-27T03:27:13.620Z,21.10
2018-07-27T03:29:41.902Z,21.10
2018-07-27T03:32:10.183Z,21.10
2018-07-27T03:34:38.485Z,21.00
2018-07-27T03:37:06.803Z,21.10
2018-07-27T03:39:35.088Z,21.00
2018-07-27T03:42:03.417Z,21.00
2018-07-27T03:44:31.692Z,21.10
2018-07-27T03:46:59.973Z,21.00
2018-07-27T03:49:28.273Z,21.00
2018-07-27T03:51:56.583Z,21.00
2018-07-27T03:54:24.901Z,20.90
2018-07-27T03:56:53.207Z,20.90
2018-07-27T03:59:21.523Z,20.90
2018-07-27T04:01:49.824Z,20.90
2018-07-27T04:04:18.100Z,20.90
2018-07-27T04:06:47.807Z,20.90
2018-07-27T04:09:16.100Z,20.80
2018-07-27T04:11:44.411Z,20.80
2018-07-27T04:14:12.738Z,20.70
2018-07-27T04:16:41.111Z,20.70
2018-07-27T04:19:09.417Z,20.80
2018-07-27T04:21:37.876Z,20.70
2018-07-27T04:24:06.298Z,20.70
2018-07-27T04:26:34.598Z,20.70
2018-07-27T04:29:02.907Z,20.80
2018-07-27T04:31:31.188Z,20.80
2018-07-27T04:33:59.507Z,20.90
2018-07-27T04:36:27.775Z,20.90
2018-07-27T04:38:56.050Z,20.90
2018-07-27T04:41:24.390Z,20.90
2018-07-27T04:43:52.744Z,20.90
2018-07-27T04:46:21.070Z,21.00
2018-07-27T04:48:49.346Z,21.00
2018-07-27T04:51:17.698Z,21.00
2018-07-27T04:53:45.993Z,21.00
2018-07-27T04:56:14.281Z,21.00
2018-07-27T04:58:42.606Z,21.10
2018-07-27T05:01:10.915Z,21.10
2018-07-27T05:03:39.190Z,21.00
2018-07-27T05:06:07.496Z,21.00
2018-07-27T05:08:41.078Z,21.00
2018-07-27T05:11:09.474Z,21.00
2018-07-27T05:13:37.903Z,21.10
2018-07-27T05:16:06.255Z,21.00
2018-07-27T05:18:34.630Z,21.20
2018-07-27T05:21:02.932Z,21.40
2018-07-27T05:23:31.361Z,21.40
2018-07-27T05:26:01.316Z,21.30
2018-07-27T05:28:29.701Z,21.30
2018-07-27T05:30:58.050Z,21.30
2018-07-27T05:33:26.412Z,21.30
2018-07-27T05:35:54.820Z,21.40
2018-07-27T05:38:23.148Z,21.50
2018-07-27T05:40:51.525Z,21.50
2018-07-27T05:43:19.841Z,21.50
2018-07-27T05:45:48.123Z,21.60
2018-07-27T05:48:16.503Z,21.60
2018-07-27T05:50:44.802Z,21.70
2018-07-27T05:53:13.133Z,21.80
2018-07-27T05:55:41.432Z,21.90
2018-07-27T05:58:09.814Z,21.90
2018-07-27T06:00:38.163Z,22.00
2018-07-27T06:03:06.461Z,22.10
2018-07-27T06:05:34.845Z,22.10
2018-07-27T06:08:03.143Z,22.20
2018-07-27T06:10:31.521Z,22.30
2018-07-27T06:12:59.868Z,22.30
2018-07-27T06:15:28.254Z,22.40
2018-07-27T06:17:56.631Z,22.60
2018-07-27T06:20:24.858Z,22.70
2018-07-27T06:22:53.152Z,22.80
2018-07-27T06:25:21.468Z,22.90
2018-07-27T06:27:49.894Z,23.10
2018-07-27T06:30:18.189Z,23.80
2018-07-27T06:32:46.631Z,24.60
2018-07-27T06:35:14.949Z,25.50
2018-07-27T06:37:43.328Z,25.90
2018-07-27T06:40:11.728Z,26.30
2018-07-27T06:42:40.024Z,26.60
2018-07-27T06:45:08.466Z,26.90
2018-07-27T06:47:36.752Z,27.10
2018-07-27T06:50:05.542Z,27.30
2018-07-27T06:52:33.992Z,27.50
2018-07-27T06:55:02.323Z,27.70
2018-07-27T06:57:31.729Z,27.80
2018-07-27T07:00:00.108Z,27.90
2018-07-27T07:02:29.280Z,28.30
2018-07-27T07:04:58.662Z,28.50
2018-07-27T07:07:26.946Z,28.60
2018-07-27T07:09:55.366Z,28.50
2018-07-27T07:12:23.739Z,28.30
2018-07-27T07:14:52.096Z,28.10
2018-07-27T07:17:20.452Z,27.90
2018-07-27T07:19:48.746Z,27.80
2018-07-27T07:22:17.134Z,27.60
2018-07-27T07:27:13.595Z,27.50
2018-07-27T07:29:41.987Z,28.00
2018-07-27T07:32:10.305Z,28.80
2018-07-27T07:34:38.657Z,29.90
2018-07-27T07:37:07.017Z,31.50
2018-07-27T07:39:35.403Z,32.00
2018-07-27T07:42:03.744Z,32.90
2018-07-27T07:44:32.154Z,32.80
2018-07-27T07:47:00.523Z,32.80
2018-07-27T07:49:28.982Z,32.80
2018-07-27T07:51:57.292Z,32.50
2018-07-27T07:54:25.677Z,32.10
2018-07-27T07:56:54.052Z,31.50
2018-07-27T07:59:22.436Z,31.80
2018-07-27T08:01:50.776Z,32.60
2018-07-27T08:04:19.147Z,32.50
2018-07-27T08:06:47.430Z,33.90
2018-07-27T08:09:15.843Z,34.30
2018-07-27T08:11:44.269Z,35.60
2018-07-27T08:14:12.599Z,35.70
2018-07-27T08:16:40.966Z,35.30
2018-07-27T08:19:09.334Z,34.40
2018-07-27T08:21:37.752Z,33.00
2018-07-27T08:24:06.193Z,30.60
2018-07-27T08:26:40.741Z,29.10
2018-07-27T08:29:10.413Z,28.40
2018-07-27T08:31:39.852Z,28.00
2018-07-27T08:34:08.234Z,27.80
2018-07-27T08:36:36.689Z,27.90
2018-07-27T08:39:08.643Z,27.80
2018-07-27T08:41:37.393Z,28.00
2018-07-27T08:44:05.936Z,28.00
2018-07-27T08:46:34.310Z,28.10
2018-07-27T08:49:02.674Z,28.00
2018-07-27T08:51:31.351Z,28.40
2018-07-27T08:53:59.770Z,28.60
2018-07-27T08:56:28.209Z,28.50
2018-07-27T08:58:56.599Z,28.60
2018-07-27T09:01:25.215Z,28.60
2018-07-27T09:03:54.098Z,28.60
2018-07-27T09:06:22.336Z,28.80
2018-07-27T09:08:52.496Z,28.80
2018-07-27T09:11:22.529Z,28.80
2018-07-27T09:13:51.860Z,28.90
2018-07-27T09:16:20.595Z,28.90
2018-07-27T09:18:49.273Z,28.60
2018-07-27T09:21:17.654Z,28.50
2018-07-27T09:23:45.993Z,28.40
2018-07-27T09:26:15.375Z,28.50
2018-07-27T09:28:43.742Z,28.60
2018-07-27T09:31:12.192Z,28.60
2018-07-27T09:33:40.524Z,28.70
2018-07-27T09:36:08.944Z,28.60
2018-07-27T09:38:37.351Z,28.80
2018-07-27T09:41:05.759Z,29.00
2018-07-27T09:43:34.166Z,29.00
2018-07-27T09:46:02.539Z,29.00
2018-07-27T09:48:30.864Z,29.00
2018-07-27T09:51:00.270Z,29.00
2018-07-27T09:53:28.682Z,29.00
2018-07-27T09:55:57.035Z,29.30
2018-07-27T09:58:25.447Z,29.40
2018-07-27T10:00:59.241Z,29.50
2018-07-27T10:03:27.615Z,29.60
2018-07-27T10:05:56.215Z,29.70
2018-07-27T10:08:24.532Z,29.60
2018-07-27T10:10:52.926Z,29.70
2018-07-27T10:13:21.313Z,29.80
2018-07-27T10:15:49.781Z,30.10
2018-07-27T10:18:18.275Z,30.30
2018-07-27T10:20:52.116Z,30.40
2018-07-27T10:23:20.447Z,30.40
2018-07-27T10:25:48.818Z,30.40
2018-07-27T10:28:17.240Z,30.30
2018-07-27T10:30:46.668Z,30.30
2018-07-27T10:33:14.986Z,30.40
2018-07-27T10:35:43.386Z,30.40
2018-07-27T10:38:11.796Z,30.40
2018-07-27T10:40:40.133Z,30.20
2018-07-27T10:43:08.493Z,29.90
2018-07-27T10:45:36.973Z,29.80
2018-07-27T10:48:07.974Z,29.70
2018-07-27T10:50:37.372Z,29.50
2018-07-27T10:53:06.023Z,29.60
2018-07-27T10:55:35.320Z,29.80
2018-07-27T10:58:03.817Z,29.90
2018-07-27T11:00:37.272Z,29.60
2018-07-27T11:03:06.277Z,29.50
2018-07-27T11:05:34.628Z,29.40
2018-07-27T11:08:03.358Z,29.40
2018-07-27T11:10:31.784Z,29.40
2018-07-27T11:13:00.223Z,29.20
2018-07-27T11:15:28.616Z,29.10
2018-07-27T11:17:57.015Z,29.20
2018-07-27T11:20:25.342Z,29.10
2018-07-27T11:22:53.718Z,29.00
2018-07-27T11:25:22.144Z,29.00
2018-07-27T11:27:50.492Z,29.00
2018-07-27T11:30:18.933Z,29.00
2018-07-27T11:32:47.239Z,29.00
2018-07-27T11:35:16.321Z,28.90
2018-07-27T11:37:44.721Z,28.90
2018-07-27T11:40:13.165Z,28.90
2018-07-27T11:45:10.648Z,28.90
2018-07-27T11:47:39.077Z,28.90
2018-07-27T11:50:07.744Z,29.00
2018-07-27T11:52:36.179Z,29.00
2018-07-27T11:55:05.243Z,29.20
2018-07-27T11:57:33.667Z,29.40
2018-07-27T12:00:01.930Z,29.50
2018-07-27T12:02:30.224Z,29.50
2018-07-27T12:04:58.601Z,29.50
2018-07-27T12:07:27.014Z,29.50
2018-07-27T12:09:55.346Z,29.50
2018-07-27T12:12:23.678Z,29.50
2018-07-27T12:14:52.205Z,29.70
2018-07-27T12:17:20.415Z,29.80
2018-07-27T12:19:48.746Z,30.00
2018-07-27T12:22:17.049Z,30.10
2018-07-27T12:24:45.408Z,30.20
2018-07-27T12:27:13.709Z,30.20
2018-07-27T12:29:42.075Z,30.20
2018-07-27T12:32:10.384Z,30.20
2018-07-27T12:34:38.743Z,30.30
2018-07-27T12:37:08.069Z,30.40
2018-07-27T12:39:36.438Z,30.30
2018-07-27T12:42:06.056Z,30.30
2018-07-27T12:44:34.430Z,30.10
2018-07-27T12:47:02.752Z,29.90
2018-07-27T12:49:31.079Z,29.80
2018-07-27T12:51:59.433Z,29.70
2018-07-27T12:54:28.783Z,29.50
2018-07-27T12:56:57.172Z,29.40
2018-07-27T12:59:25.543Z,29.40
2018-07-27T13:01:53.817Z,29.30
2018-07-27T13:04:22.307Z,29.10
2018-07-27T13:06:51.913Z,29.00
2018-07-27T13:09:20.389Z,29.00
2018-07-27T13:11:50.053Z,28.90
2018-07-27T13:14:18.349Z,28.80
2018-07-27T13:16:47.566Z,28.80
2018-07-27T13:19:17.128Z,29.00
2018-07-27T13:21:45.514Z,29.20
2018-07-27T13:24:13.800Z,29.30
2018-07-27T13:26:42.249Z,29.30
2018-07-27T13:29:10.487Z,29.50
2018-07-27T13:31:49.013Z,29.70
2018-07-27T13:34:35.230Z,29.60
2018-07-27T13:37:03.883Z,29.70
2018-07-27T13:39:33.223Z,29.80
2018-07-27T13:42:04.245Z,29.90
2018-07-27T13:44:33.743Z,30.00
2018-07-27T13:47:02.566Z,30.00
2018-07-27T13:49:30.926Z,30.00
2018-07-27T13:52:02.360Z,30.10
2018-07-27T13:56:59.955Z,30.20
2018-07-27T13:59:28.235Z,30.20
2018-07-27T14:01:56.525Z,30.00
2018-07-27T14:04:26.297Z,30.10
2018-07-27T14:06:55.876Z,30.10
2018-07-27T14:09:24.630Z,30.00
2018-07-27T14:11:53.185Z,30.00
2018-07-27T14:14:21.491Z,30.20
2018-07-27T14:16:49.785Z,30.10
2018-07-27T14:19:18.817Z,30.00
2018-07-27T14:21:47.265Z,29.90
2018-07-27T14:24:16.723Z,29.70
2018-07-27T14:26:46.035Z,29.60
2018-07-27T14:29:14.453Z,29.60
2018-07-27T14:31:42.860Z,29.50
2018-07-27T14:34:11.200Z,29.50
2018-07-27T14:36:39.577Z,29.60
2018-07-27T14:39:11.811Z,29.60
2018-07-27T14:41:43.097Z,29.50
2018-07-27T14:44:11.416Z,29.50
2018-07-27T14:46:40.808Z,29.60
2018-07-27T14:49:12.272Z,29.60
2018-07-27T14:51:41.240Z,29.60
2018-07-27T14:54:10.747Z,29.50
2018-07-27T14:56:40.691Z,29.40
2018-07-27T14:59:09.705Z,29.50
2018-07-27T15:01:38.385Z,29.60
2018-07-27T15:04:07.108Z,29.60
2018-07-27T15:06:36.421Z,29.60
2018-07-27T15:09:07.730Z,29.70
2018-07-27T15:11:36.017Z,29.70
2018-07-27T15:14:08.159Z,29.60
2018-07-27T15:16:36.692Z,29.60
2018-07-27T15:19:05.078Z,29.60
2018-07-27T15:21:33.396Z,29.60
2018-07-27T15:24:01.756Z,29.70
2018-07-27T15:26:30.106Z,29.70
2018-07-27T15:28:58.532Z,29.70
2018-07-27T15:31:27.829Z,29.70
2018-07-27T15:33:56.139Z,29.70
2018-07-27T15:36:25.121Z,29.60
2018-07-27T15:38:54.526Z,29.50
2018-07-27T15:41:27.858Z,29.50
2018-07-27T15:43:56.285Z,29.50
2018-07-27T15:46:26.623Z,29.50
2018-07-27T15:48:54.991Z,29.50
2018-07-27T15:51:24.329Z,29.40
2018-07-27T15:56:26.983Z,29.40
2018-07-27T15:58:57.919Z,29.40
2018-07-27T16:01:28.423Z,29.40
2018-07-27T16:03:56.869Z,29.40
2018-07-27T16:06:27.255Z,29.30
2018-07-27T16:09:02.650Z,29.20
2018-07-27T16:13:59.109Z,29.20
2018-07-27T16:16:27.426Z,29.20
2018-07-27T16:18:57.878Z,29.30
2018-07-27T16:21:27.239Z,29.30
2018-07-27T16:23:58.596Z,29.30
2018-07-27T16:26:36.569Z,29.30
2018-07-27T16:29:05.024Z,29.20
2018-07-27T16:31:33.362Z,29.20
2018-07-27T16:34:07.226Z,29.20
2018-07-27T16:36:35.665Z,29.20
2018-07-27T16:39:06.223Z,29.30
2018-07-27T16:44:16.030Z,29.20
2018-07-27T16:46:44.868Z,29.10
2018-07-27T16:49:13.178Z,29.10
2018-07-27T16:51:44.333Z,29.10
2018-07-27T16:54:12.645Z,29.10
2018-07-27T16:56:43.195Z,29.10
2018-07-27T16:59:12.784Z,29.10
2018-07-27T17:01:43.337Z,29.00
2018-07-27T17:04:12.430Z,29.00
2018-07-27T17:06:49.519Z,29.00
2018-07-27T17:09:19.310Z,29.00
2018-07-27T17:11:50.379Z,29.10
2018-07-27T17:14:18.694Z,29.00
2018-07-27T17:16:47.066Z,29.00
2018-07-27T17:19:15.420Z,29.10
2018-07-27T17:21:43.783Z,29.00
2018-07-27T17:24:12.139Z,29.00
2018-07-27T17:26:41.365Z,29.00
2018-07-27T17:31:37.664Z,28.90
2018-07-27T17:34:07.020Z,28.90
2018-07-27T17:39:03.663Z,28.80
2018-07-27T17:41:31.993Z,28.80
2018-07-27T17:44:01.742Z,28.70
2018-07-27T17:46:45.664Z,28.70
2018-07-27T17:49:14.959Z,28.70
2018-07-27T17:51:43.324Z,28.50
2018-07-27T17:54:11.705Z,28.50
2018-07-27T17:56:41.221Z,28.50
2018-07-27T17:59:09.609Z,28.40
2018-07-27T18:01:37.981Z,28.40
2018-07-27T18:04:06.249Z,28.30
2018-07-27T18:06:34.524Z,28.30
2018-07-27T18:09:11.415Z,28.20
2018-07-27T18:11:40.280Z,28.20
2018-07-27T18:14:08.644Z,28.10
2018-07-27T18:19:06.889Z,28.00
2018-07-27T18:21:36.463Z,28.00
2018-07-27T18:24:06.345Z,28.00
2018-07-27T18:27:01.077Z,27.90
2018-07-27T18:29:29.580Z,27.90
2018-07-27T18:34:32.626Z,27.80
2018-07-27T18:37:00.869Z,27.70
2018-07-27T18:39:30.100Z,27.70
2018-07-27T18:42:05.580Z,27.70
2018-07-27T18:44:33.964Z,27.60
2018-07-27T18:47:02.304Z,27.60
2018-07-27T18:49:30.591Z,27.60
2018-07-27T18:52:02.816Z,27.50
2018-07-27T18:54:37.070Z,27.50
2018-07-27T18:57:07.176Z,27.40
2018-07-27T18:59:35.689Z,27.40
2018-07-27T19:02:04.284Z,27.40
2018-07-27T19:04:32.718Z,27.30
2018-07-27T19:07:01.084Z,27.30
2018-07-27T19:09:29.428Z,27.20
2018-07-27T19:11:58.809Z,27.10
2018-07-27T19:14:27.177Z,27.10
2018-07-27T19:17:14.003Z,27.00
2018-07-27T19:22:27.936Z,26.90
2018-07-27T19:24:56.269Z,26.80
2018-07-27T19:27:24.633Z,26.70
2018-07-27T19:29:56.049Z,26.70
2018-07-27T19:32:25.456Z,26.60
2018-07-27T19:34:53.846Z,26.60
2018-07-27T19:37:22.307Z,26.50
2018-07-27T19:39:50.603Z,26.40
2018-07-27T19:42:19.072Z,26.40
2018-07-27T19:44:47.437Z,26.30
2018-07-27T19:47:24.580Z,26.20
2018-07-27T19:49:54.893Z,26.20
2018-07-27T19:52:24.286Z,26.10
2018-07-27T19:54:53.682Z,26.10
2018-07-27T19:57:22.148Z,26.10
2018-07-27T19:59:50.487Z,26.00
2018-07-27T20:02:19.935Z,25.90
2018-07-27T20:04:48.200Z,25.80
2018-07-27T20:07:16.525Z,25.70
2018-07-27T20:09:45.682Z,25.70
2018-07-27T20:12:14.200Z,25.60
2018-07-27T20:14:43.398Z,25.50
2018-07-27T20:17:11.681Z,25.50
2018-07-27T20:19:40.089Z,25.50
2018-07-27T20:22:13.425Z,25.50
2018-07-27T20:24:42.745Z,25.40
2018-07-27T20:27:12.072Z,25.40
2018-07-27T20:29:41.441Z,25.30
2018-07-27T20:32:09.916Z,25.30
2018-07-27T20:34:40.743Z,25.30
2018-07-27T20:37:11.067Z,25.20
2018-07-27T20:39:42.909Z,25.20
2018-07-27T20:42:17.764Z,25.20
2018-07-27T20:44:46.092Z,25.10
2018-07-27T20:47:14.387Z,25.00
2018-07-27T20:49:42.698Z,24.90
2018-07-27T20:52:15.633Z,24.90
2018-07-27T20:54:44.049Z,24.80
2018-07-27T20:57:12.757Z,24.70
2018-07-27T20:59:41.116Z,24.70
2018-07-27T21:02:10.862Z,24.60
2018-07-27T21:04:40.413Z,24.60
2018-07-27T21:07:08.935Z,24.50
2018-07-27T21:09:39.348Z,24.50
2018-07-27T21:14:37.349Z,24.40
2018-07-27T21:17:12.328Z,24.40
2018-07-27T21:19:46.635Z,24.40
2018-07-27T21:22:15.122Z,24.40
2018-07-27T21:24:43.459Z,24.30
2018-07-27T21:27:11.823Z,24.20
2018-07-27T21:29:40.189Z,24.20
2018-07-27T21:32:08.625Z,24.10
2018-07-27T21:34:37.317Z,24.10
2018-07-27T21:37:05.694Z,24.00
2018-07-27T21:39:34.027Z,24.00
2018-07-27T21:42:02.367Z,23.90
2018-07-27T21:44:30.631Z,23.90
2018-07-27T21:46:58.941Z,23.90
2018-07-27T21:49:27.203Z,23.70
2018-07-27T21:51:55.490Z,23.70
2018-07-27T21:54:24.169Z,23.60
2018-07-27T21:56:52.461Z,23.60
2018-07-27T21:59:20.780Z,23.50
2018-07-27T22:01:49.420Z,23.40
2018-07-27T22:04:17.794Z,23.30
2018-07-27T22:06:46.032Z,23.20
2018-07-27T22:09:14.289Z,23.20
2018-07-27T22:11:42.591Z,23.30
2018-07-27T22:14:10.913Z,23.30
2018-07-27T22:16:39.169Z,23.30
2018-07-27T22:19:07.462Z,23.20
2018-07-27T22:21:37.695Z,23.10
2018-07-27T22:24:06.231Z,23.10
2018-07-27T22:26:34.495Z,23.10
2018-07-27T22:29:02.823Z,23.10
2018-07-27T22:31:31.197Z,23.00
2018-07-27T22:33:59.487Z,23.00
2018-07-27T22:36:27.736Z,22.90
2018-07-27T22:38:56.036Z,22.90
2018-07-27T22:41:24.344Z,22.90
2018-07-27T22:43:52.629Z,22.80
2018-07-27T22:46:21.017Z,22.70
2018-07-27T22:48:49.413Z,22.60
2018-07-27T22:51:17.713Z,22.50
2018-07-27T22:53:45.982Z,22.60
2018-07-27T22:56:14.296Z,22.60
2018-07-27T22:58:42.617Z,22.60
2018-07-27T23:01:10.895Z,22.50
2018-07-27T23:03:39.166Z,22.50
2018-07-27T23:06:07.439Z,22.50
2018-07-27T23:08:35.759Z,22.40
2018-07-27T23:11:04.275Z,22.40
2018-07-27T23:13:32.558Z,22.50
2018-07-27T23:16:00.856Z,22.40
2018-07-27T23:18:29.177Z,22.40
2018-07-27T23:20:57.497Z,22.40
2018-07-27T23:23:25.759Z,22.30
2018-07-27T23:25:54.057Z,22.30
2018-07-27T23:28:22.390Z,22.20
2018-07-27T23:30:50.694Z,22.10
2018-07-27T23:33:19.140Z,22.00
2018-07-27T23:35:47.470Z,22.00
2018-07-27T23:38:16.923Z,21.90
2018-07-27T23:40:45.207Z,22.00
2018-07-27T23:43:13.536Z,22.00
2018-07-27T23:45:41.866Z,22.10
2018-07-27T23:48:10.272Z,22.00
2018-07-27T23:50:38.688Z,22.00
2018-07-27T23:53:07.181Z,22.00
2018-07-27T23:55:35.502Z,22.00
2018-07-27T23:58:04.477Z,21.80
